Time;durP1;ratioP1;P1;durP2;ratioP2;P2;SDS_P1;SDS_P2;PMS_P1;PMS_P2;Temp;Humidity;BMP_temperature;BMP_pressure;BME280_temperature;BME280_humidity;BME280_pressure;Samples;Min_cycle;Max_cycle;Signal;HPM_P1;HPM_P2
2023/09/28 00:02:14;;;;;;;14.73;7.78;;;;;;;15.56;100.00;100910.38;6024620;28;20033;-64
2023/09/28 00:05:10;;;;;;;17.87;9.27;;;;;;;15.47;100.00;100905.06;6022683;28;20390;-64
2023/09/28 00:08:05;;;;;;;18.60;8.98;;;;;;;15.39;100.00;100899.72;6027540;28;20513;-65
2023/09/28 00:11:01;;;;;;;17.97;7.83;;;;;;;15.41;100.00;100903.03;6027916;28;20125;-64
2023/09/28 00:13:56;;;;;;;14.10;7.80;;;;;;;15.46;100.00;100924.78;6027578;28;20026;-64
2023/09/28 00:16:52;;;;;;;16.33;8.27;;;;;;;15.50;100.00;100922.59;6026613;28;20042;-64
2023/09/28 00:19:47;;;;;;;18.23;8.77;;;;;;;15.39;100.00;100905.06;6021388;28;20407;-64
2023/09/28 00:22:44;;;;;;;17.50;7.50;;;;;;;15.55;100.00;100925.59;6019287;28;20053;-64
2023/09/28 00:25:39;;;;;;;11.38;6.65;;;;;;;15.58;100.00;100927.06;6023084;28;20027;-64
2023/09/28 00:28:34;;;;;;;13.27;6.67;;;;;;;15.48;100.00;100936.16;6025724;28;20053;-64
2023/09/28 00:31:31;;;;;;;14.95;7.32;;;;;;;15.49;100.00;100913.75;6027551;28;20042;-64
2023/09/28 00:34:26;;;;;;;14.25;6.97;;;;;;;15.63;100.00;100930.06;6027212;28;20042;-64
2023/09/28 00:37:21;;;;;;;12.63;7.07;;;;;;;15.49;100.00;100927.09;6026765;28;20069;-64
2023/09/28 00:40:24;;;;;;;13.10;6.57;;;;;;;15.50;100.00;100927.94;6026857;28;20037;-64
2023/09/28 00:43:26;;;;;;;13.63;7.22;;;;;;;15.41;100.00;100913.72;6027986;28;20035;-64
2023/09/28 00:46:22;;;;;;;14.68;6.70;;;;;;;15.29;100.00;100928.50;6025916;28;20062;-64
2023/09/28 00:49:17;;;;;;;13.60;6.53;;;;;;;15.24;100.00;100917.47;6026930;28;20044;-64
2023/09/28 00:52:16;;;;;;;12.77;7.00;;;;;;;15.24;100.00;100912.13;6026668;28;20034;-63
2023/09/28 00:55:14;;;;;;;11.73;6.82;;;;;;;15.05;100.00;100909.84;6026267;28;20505;-64
2023/09/28 00:58:10;;;;;;;14.73;6.88;;;;;;;15.05;100.00;100915.19;6026381;28;20030;-64
2023/09/28 01:01:06;;;;;;;12.53;6.43;;;;;;;15.21;100.00;100922.31;6026316;28;20069;-64
2023/09/28 01:04:05;;;;;;;13.85;7.35;;;;;;;14.99;100.00;100915.84;6025599;28;20496;-64
2023/09/28 01:07:01;;;;;;;11.73;6.47;;;;;;;15.06;100.00;100916.00;6019194;28;20026;-64
2023/09/28 01:09:57;;;;;;;12.35;7.18;;;;;;;15.01;100.00;100905.00;6025919;28;20377;-63
2023/09/28 01:12:55;;;;;;;13.93;6.85;;;;;;;15.18;100.00;100906.63;6018458;28;20034;-64
2023/09/28 01:15:50;;;;;;;14.38;7.13;;;;;;;14.95;100.00;100893.16;6025805;28;20367;-64
2023/09/28 01:18:45;;;;;;;14.45;7.43;;;;;;;14.83;100.00;100891.84;6025759;28;20023;-64
2023/09/28 01:21:41;;;;;;;21.73;8.43;;;;;;;14.87;100.00;100901.19;6025889;28;20390;-64
2023/09/28 01:24:36;;;;;;;15.13;7.47;;;;;;;14.83;100.00;100878.50;6018499;28;20033;-64
2023/09/28 01:27:31;;;;;;;13.53;7.67;;;;;;;14.98;100.00;100881.28;6019319;28;20297;-64
2023/09/28 01:30:27;;;;;;;12.53;6.90;;;;;;;14.88;100.00;100886.84;6022507;28;20038;-64
2023/09/28 01:33:22;;;;;;;12.70;7.50;;;;;;;14.86;100.00;100879.00;6025547;28;20025;-64
2023/09/28 01:36:18;;;;;;;15.10;7.67;;;;;;;14.94;100.00;100888.00;6025554;28;20034;-65
2023/09/28 01:39:13;;;;;;;16.73;8.07;;;;;;;14.88;100.00;100871.66;6025089;28;20092;-64
2023/09/28 01:42:08;;;;;;;15.97;8.27;;;;;;;14.86;100.00;100859.47;6024556;28;20462;-64
2023/09/28 01:45:04;;;;;;;17.40;8.60;;;;;;;14.82;100.00;100866.16;6025338;28;20088;-64
2023/09/28 01:48:00;;;;;;;15.55;7.47;;;;;;;14.86;100.00;100864.81;6025180;28;20128;-64
2023/09/28 01:50:56;;;;;;;18.63;8.30;;;;;;;14.87;100.00;100861.13;6021558;28;20397;-64
2023/09/28 01:53:51;;;;;;;14.90;8.17;;;;;;;14.89;100.00;100869.81;6025204;28;20038;-64
2023/09/28 01:56:47;;;;;;;13.67;7.83;;;;;;;14.95;100.00;100853.09;6029564;28;20276;-64
2023/09/28 01:59:43;;;;;;;13.40;7.47;;;;;;;15.07;100.00;100857.09;6022684;28;20030;-64
2023/09/28 02:02:38;;;;;;;15.80;7.07;;;;;;;14.90;100.00;100845.59;6025755;28;20034;-64
2023/09/28 02:05:33;;;;;;;21.50;7.63;;;;;;;14.86;100.00;100843.44;6025409;28;20030;-64
2023/09/28 02:08:28;;;;;;;14.75;7.78;;;;;;;14.85;100.00;100842.63;6024530;28;20038;-64
2023/09/28 02:11:24;;;;;;;17.57;9.13;;;;;;;14.83;100.00;100822.44;6025781;28;20035;-64
2023/09/28 02:14:19;;;;;;;17.23;8.50;;;;;;;14.77;100.00;100812.44;6025236;28;20466;-64
2023/09/28 02:17:15;;;;;;;17.17;7.82;;;;;;;14.93;100.00;100840.91;6024386;28;20473;-64
2023/09/28 02:20:14;;;;;;;17.17;8.50;;;;;;;14.99;100.00;100838.41;6019856;28;20057;-64
2023/09/28 02:23:10;;;;;;;17.48;8.32;;;;;;;15.16;100.00;100833.84;6024762;28;20030;-64
2023/09/28 02:26:06;;;;;;;13.43;7.50;;;;;;;15.18;100.00;100843.34;6025212;28;20030;-64
2023/09/28 02:29:02;;;;;;;15.30;6.38;;;;;;;15.22;100.00;100855.34;6024176;28;20030;-64
2023/09/28 02:31:57;;;;;;;14.63;7.68;;;;;;;15.20;100.00;100843.16;6024111;28;20049;-64
2023/09/28 02:34:53;;;;;;;15.05;7.00;;;;;;;15.30;100.00;100874.03;6025271;28;20381;-64
2023/09/28 02:37:49;;;;;;;10.30;6.07;;;;;;;15.23;100.00;100878.41;6024455;28;20038;-64
2023/09/28 02:40:45;;;;;;;11.65;6.05;;;;;;;15.16;100.00;100869.41;6025340;28;20037;-63
2023/09/28 02:43:40;;;;;;;13.10;6.40;;;;;;;15.11;100.00;100881.63;6024618;28;20026;-64
2023/09/28 02:46:35;;;;;;;14.03;6.03;;;;;;;15.31;100.00;100902.41;6026615;28;20026;-63
2023/09/28 02:49:32;;;;;;;13.00;6.13;;;;;;;15.39;100.00;100899.72;6029836;28;20109;-63
2023/09/28 02:52:27;;;;;;;14.10;5.97;;;;;;;15.51;100.00;100902.06;6021145;28;20277;-63
2023/09/28 02:55:22;;;;;;;11.03;5.50;;;;;;;15.68;100.00;100898.31;6033816;28;20026;-64
2023/09/28 02:58:21;;;;;;;12.80;5.67;;;;;;;15.77;100.00;100886.53;6021206;28;20286;-63
2023/09/28 03:01:21;;;;;;;10.27;6.20;;;;;;;15.83;100.00;100875.16;6029532;28;20448;-64
2023/09/28 03:04:16;;;;;;;13.13;6.22;;;;;;;15.95;100.00;100884.47;6022986;28;20036;-64
2023/09/28 03:07:11;;;;;;;10.53;5.67;;;;;;;16.07;100.00;100883.88;6028495;28;20031;-64
2023/09/28 03:10:09;;;;;;;9.93;5.30;;;;;;;15.91;100.00;100862.56;6028950;28;20282;-64
2023/09/28 03:13:05;;;;;;;9.77;5.75;;;;;;;15.93;100.00;100867.72;6022962;28;20053;-64
2023/09/28 03:16:01;;;;;;;12.52;5.50;;;;;;;16.04;100.00;100878.03;6025679;28;20432;-64
2023/09/28 03:18:57;;;;;;;9.77;5.40;;;;;;;15.97;100.00;100869.06;6022019;28;20500;-64
2023/09/28 03:21:53;;;;;;;13.82;7.32;;;;;;;15.99;100.00;100878.56;6029233;28;20393;-64
2023/09/28 03:24:48;;;;;;;10.07;5.78;;;;;;;15.87;100.00;100860.44;6028762;28;20108;-64
2023/09/28 03:27:45;;;;;;;12.97;6.83;;;;;;;15.85;100.00;100879.31;6027111;28;20057;-64
2023/09/28 03:30:40;;;;;;;14.95;6.85;;;;;;;15.81;100.00;100861.97;6028784;28;20276;-65
2023/09/28 03:33:35;;;;;;;18.57;7.33;;;;;;;15.83;100.00;100864.47;6027997;28;20022;-64
2023/09/28 03:36:33;;;;;;;16.70;6.50;;;;;;;15.81;100.00;100869.16;6027655;28;20466;-64
2023/09/28 03:39:28;;;;;;;16.98;7.55;;;;;;;15.87;100.00;100887.19;6028575;28;20109;-64
2023/09/28 03:42:25;;;;;;;14.73;7.83;;;;;;;15.90;100.00;100881.44;6025659;28;20429;-65
2023/09/28 03:45:21;;;;;;;17.10;7.68;;;;;;;15.97;100.00;100871.72;6027155;28;20517;-64
2023/09/28 03:48:17;;;;;;;14.48;7.45;;;;;;;16.14;100.00;100873.31;6014529;28;20034;-64
2023/09/28 03:51:14;;;;;;;13.17;7.33;;;;;;;16.28;100.00;100874.38;6018393;28;20046;-63
2023/09/28 03:54:10;;;;;;;17.15;7.40;;;;;;;16.34;100.00;100869.13;6028007;28;20045;-64
2023/09/28 03:57:05;;;;;;;13.63;7.22;;;;;;;16.29;100.00;100854.59;6029077;28;20022;-64
2023/09/28 04:00:01;;;;;;;13.70;6.70;;;;;;;16.34;100.00;100828.97;6028381;28;20042;-64
2023/09/28 04:02:56;;;;;;;15.82;7.05;;;;;;;16.51;100.00;100851.91;6027998;28;20493;-64
2023/09/28 04:05:52;;;;;;;15.10;6.07;;;;;;;16.50;100.00;100852.06;6022928;28;20398;-65
2023/09/28 04:08:47;;;;;;;12.07;6.55;;;;;;;16.35;100.00;100841.34;6024652;28;20382;-64
2023/09/28 04:11:43;;;;;;;13.82;6.05;;;;;;;16.36;100.00;100848.34;6023762;28;20038;-64
2023/09/28 04:14:38;;;;;;;12.13;6.15;;;;;;;16.25;100.00;100832.72;6024552;28;20027;-64
2023/09/28 04:17:34;;;;;;;11.38;6.13;;;;;;;16.27;100.00;100846.78;6025635;28;20057;-64
2023/09/28 04:20:29;;;;;;;13.50;6.40;;;;;;;16.29;100.00;100850.09;6018317;28;20030;-64
2023/09/28 04:23:25;;;;;;;14.27;6.83;;;;;;;16.21;100.00;100831.41;6027383;28;20484;-64
2023/09/28 04:26:20;;;;;;;10.10;5.45;;;;;;;16.37;100.00;100852.69;6022311;28;20022;-64
2023/09/28 04:29:15;;;;;;;14.98;5.65;;;;;;;16.39;100.00;100861.38;6020367;28;20042;-64
2023/09/28 04:32:11;;;;;;;11.03;6.00;;;;;;;16.33;100.00;100858.59;6025321;28;20114;-63
2023/09/28 04:35:10;;;;;;;10.77;5.60;;;;;;;16.18;100.00;100842.47;6020703;28;20381;-65
2023/09/28 04:38:05;;;;;;;10.15;5.53;;;;;;;16.21;100.00;100866.22;6024103;28;20065;-64
2023/09/28 04:41:00;;;;;;;10.23;5.30;;;;;;;16.18;100.00;100869.25;6026617;28;20081;-64
2023/09/28 04:43:56;;;;;;;10.50;5.72;;;;;;;16.11;100.00;100862.09;6025731;28;20033;-64
2023/09/28 04:46:51;;;;;;;11.25;5.82;;;;;;;16.08;100.00;100868.66;6025743;28;20038;-65
2023/09/28 04:49:48;;;;;;;10.17;5.93;;;;;;;16.01;100.00;100873.88;6027072;28;20202;-64
2023/09/28 04:52:43;;;;;;;8.65;5.40;;;;;;;16.09;100.00;100889.03;6025057;28;20053;-64
2023/09/28 04:55:38;;;;;;;10.27;5.05;;;;;;;16.02;100.00;100888.06;6027810;28;20041;-64
2023/09/28 04:58:34;;;;;;;9.90;5.90;;;;;;;16.11;100.00;100880.84;6026158;28;20034;-63
2023/09/28 05:01:30;;;;;;;11.63;5.83;;;;;;;16.28;100.00;100893.91;6026060;28;20022;-63
2023/09/28 05:04:26;;;;;;;11.93;5.65;;;;;;;16.28;100.00;100893.91;6019351;28;20038;-64
2023/09/28 05:07:21;;;;;;;13.60;6.60;;;;;;;16.41;100.00;100904.88;6025402;28;20108;-64
2023/09/28 05:10:16;;;;;;;10.77;5.47;;;;;;;16.46;100.00;100889.09;6025068;28;20034;-64
2023/09/28 05:13:12;;;;;;;11.07;6.05;;;;;;;16.66;100.00;100894.81;6026323;28;20030;-63
2023/09/28 05:16:08;;;;;;;9.52;5.13;;;;;;;16.74;100.00;100894.72;6025930;28;20037;-64
2023/09/28 05:19:03;;;;;;;13.40;5.88;;;;;;;16.81;100.00;100902.88;6025958;28;20399;-64
2023/09/28 05:21:58;;;;;;;8.93;5.30;;;;;;;16.80;100.00;100901.22;6026170;28;20054;-64
2023/09/28 05:24:54;;;;;;;10.37;5.57;;;;;;;16.79;100.00;100902.25;6030327;28;20407;-64
2023/09/28 05:27:50;;;;;;;8.43;5.10;;;;;;;16.75;100.00;100903.59;6031760;28;20034;-64
2023/09/28 05:30:45;;;;;;;11.10;5.77;;;;;;;16.67;100.00;100900.00;6030730;28;20034;-64
2023/09/28 05:33:41;;;;;;;10.73;5.37;;;;;;;16.59;100.00;100909.94;6025920;28;20030;-63
2023/09/28 05:36:36;;;;;;;10.05;5.32;;;;;;;16.57;100.00;100920.84;6024395;28;20389;-65
2023/09/28 05:39:32;;;;;;;13.70;5.40;;;;;;;16.41;100.00;100888.81;6026151;28;20397;-64
2023/09/28 05:42:27;;;;;;;10.15;5.13;;;;;;;16.44;100.00;100890.31;6025958;28;20041;-65
2023/09/28 05:45:23;;;;;;;10.00;5.07;;;;;;;16.47;100.00;100901.47;6025252;28;20045;-64
2023/09/28 05:48:18;;;;;;;10.03;5.03;;;;;;;16.50;100.00;100914.50;6025400;28;20035;-64
2023/09/28 05:51:13;;;;;;;9.83;4.80;;;;;;;16.50;100.00;100927.88;6024795;28;20038;-64
2023/09/28 05:54:09;;;;;;;10.23;4.83;;;;;;;16.56;100.00;100921.84;6025730;28;20069;-63
2023/09/28 05:57:04;;;;;;;9.43;5.80;;;;;;;16.80;100.00;100950.25;6031025;28;20037;-64
2023/09/28 05:59:59;;;;;;;9.53;4.63;;;;;;;16.79;100.00;100950.47;6025524;28;20478;-64
2023/09/28 06:02:54;;;;;;;9.40;5.07;;;;;;;17.00;100.00;100946.06;6025618;28;20034;-64
2023/09/28 06:05:50;;;;;;;10.67;4.83;;;;;;;17.06;100.00;100944.50;6024942;28;20034;-63
2023/09/28 06:08:46;;;;;;;9.30;5.03;;;;;;;17.29;100.00;100937.22;6026213;28;20501;-64
2023/09/28 06:11:41;;;;;;;9.52;4.88;;;;;;;17.44;100.00;100939.94;6026137;28;20058;-65
2023/09/28 06:14:37;;;;;;;10.73;5.17;;;;;;;17.41;100.00;100959.91;6025419;28;20038;-63
2023/09/28 06:17:32;;;;;;;10.70;4.37;;;;;;;17.45;100.00;100955.81;6025253;28;20030;-64
2023/09/28 06:20:27;;;;;;;7.83;4.33;;;;;;;17.52;100.00;100962.13;6025205;28;20045;-64
2023/09/28 06:23:23;;;;;;;9.03;4.40;;;;;;;17.51;100.00;100965.81;6030242;28;20277;-64
2023/09/28 06:26:18;;;;;;;7.67;4.20;;;;;;;17.71;100.00;100956.22;6030615;28;20328;-64
2023/09/28 06:29:13;;;;;;;8.57;4.47;;;;;;;17.93;100.00;100975.06;6025488;28;20030;-63
2023/09/28 06:32:09;;;;;;;9.60;5.17;;;;;;;18.06;100.00;100970.69;6030156;28;20293;-64
2023/09/28 06:35:04;;;;;;;7.55;4.20;;;;;;;18.23;100.00;100976.69;6029511;28;20030;-63
2023/09/28 06:38:00;;;;;;;8.05;3.72;;;;;;;18.44;100.00;100971.34;6029443;28;20030;-64
2023/09/28 06:40:57;;;;;;;12.05;4.30;;;;;;;18.74;100.00;100980.97;6029381;28;20042;-64
2023/09/28 06:43:53;;;;;;;7.93;3.83;;;;;;;19.02;100.00;100972.97;6024031;28;20469;-63
2023/09/28 06:46:48;;;;;;;7.27;3.67;;;;;;;19.44;100.00;100966.66;6029052;28;20031;-64
2023/09/28 06:49:44;;;;;;;6.50;3.72;;;;;;;19.59;98.32;100975.47;6029557;28;20049;-64
2023/09/28 06:52:39;;;;;;;6.55;3.90;;;;;;;19.52;99.28;100979.94;6030326;28;20111;-64
2023/09/28 06:55:35;;;;;;;7.80;3.57;;;;;;;19.82;97.11;100984.06;6029477;28;20465;-63
2023/09/28 06:58:30;;;;;;;8.25;3.55;;;;;;;19.61;98.64;100981.47;6029538;28;20030;-64
2023/09/28 07:01:26;;;;;;;6.65;3.97;;;;;;;19.72;98.28;100993.53;6029535;28;20027;-64
2023/09/28 07:04:22;;;;;;;9.43;4.07;;;;;;;19.52;99.13;100996.09;6029129;28;20074;-64
2023/09/28 07:07:17;;;;;;;8.70;4.05;;;;;;;19.35;100.00;101000.09;6028727;28;20045;-64
2023/09/28 07:10:13;;;;;;;7.00;3.72;;;;;;;19.34;100.00;100995.75;6027359;28;20085;-64
2023/09/28 07:13:08;;;;;;;7.35;4.30;;;;;;;19.32;100.00;100995.91;6029026;28;20397;-64
2023/09/28 07:16:04;;;;;;;6.67;4.03;;;;;;;19.57;100.00;101024.06;6028916;28;20076;-63
2023/09/28 07:19:03;;;;;;;8.77;4.40;;;;;;;19.44;100.00;101009.69;6028477;28;20033;-64
2023/09/28 07:21:58;;;;;;;7.55;3.80;;;;;;;19.58;100.00;101027.59;6029086;28;20348;-64
2023/09/28 07:24:55;;;;;;;9.00;4.30;;;;;;;19.44;100.00;101036.59;6027841;28;20030;-64
2023/09/28 07:27:50;;;;;;;6.53;3.72;;;;;;;19.50;100.00;101036.66;6028263;28;20026;-64
2023/09/28 07:30:46;;;;;;;7.83;3.70;;;;;;;19.46;100.00;101038.06;6028809;28;20037;-64
2023/09/28 07:33:43;;;;;;;6.65;3.55;;;;;;;19.53;100.00;101020.13;6027507;28;20049;-64
2023/09/28 07:36:39;;;;;;;6.57;3.55;;;;;;;19.43;100.00;101043.84;6027445;28;20030;-64
2023/09/28 07:39:34;;;;;;;6.50;3.60;;;;;;;19.47;100.00;101030.84;6028451;28;20449;-64
2023/09/28 07:42:30;;;;;;;6.40;3.70;;;;;;;19.54;100.00;101034.41;6029299;28;20045;-64
2023/09/28 07:45:26;;;;;;;6.15;3.50;;;;;;;19.70;100.00;101034.13;6028098;28;20030;-64
2023/09/28 07:48:21;;;;;;;9.90;3.72;;;;;;;19.33;100.00;101034.41;6027791;28;20030;-64
2023/09/28 07:51:17;;;;;;;5.67;3.67;;;;;;;19.40;100.00;101043.41;6028860;28;20038;-63
2023/09/28 07:54:13;;;;;;;6.57;3.90;;;;;;;19.20;100.00;101037.84;6028899;28;20030;-64
2023/09/28 07:57:08;;;;;;;8.47;3.93;;;;;;;19.25;100.00;101032.69;6034583;28;20043;-64
2023/09/28 08:00:06;;;;;;;7.33;4.00;;;;;;;19.35;100.00;101043.94;6028032;28;20040;-64
2023/09/28 08:03:03;;;;;;;7.25;4.10;;;;;;;19.28;100.00;101037.69;6027952;28;20034;-64
2023/09/28 08:05:59;;;;;;;7.75;3.65;;;;;;;19.46;100.00;101054.22;6027049;28;20114;-64
2023/09/28 08:08:57;;;;;;;8.23;3.85;;;;;;;19.45;100.00;101052.56;6026953;28;20034;-64
2023/09/28 08:11:53;;;;;;;8.25;4.00;;;;;;;19.49;100.00;101036.84;6025317;28;20114;-64
2023/09/28 08:14:48;;;;;;;8.93;4.17;;;;;;;20.04;99.69;101060.19;6027485;28;20519;-64
2023/09/28 08:17:45;;;;;;;8.63;3.80;;;;;;;20.35;97.78;101054.34;6026823;28;20520;-63
2023/09/28 08:20:40;;;;;;;6.63;3.45;;;;;;;20.79;94.44;101065.47;6027726;28;20034;-64
2023/09/28 08:23:37;;;;;;;9.10;3.80;;;;;;;20.88;92.02;101064.25;6026841;28;20030;-63
2023/09/28 08:26:32;;;;;;;7.05;3.65;;;;;;;21.13;90.39;101068.06;6027091;28;20045;-65
2023/09/28 08:29:27;;;;;;;6.67;4.00;;;;;;;21.30;91.10;101063.94;6027129;28;20034;-64
2023/09/28 08:32:23;;;;;;;9.23;3.57;;;;;;;21.68;88.48;101082.19;6027222;28;20494;-65
2023/09/28 08:35:18;;;;;;;5.10;2.73;;;;;;;21.82;86.35;101054.13;6026472;28;21002;-63
2023/09/28 08:38:15;;;;;;;7.40;3.40;;;;;;;22.08;84.01;101077.56;6025922;28;20285;-64
2023/09/28 08:41:10;;;;;;;5.50;2.95;;;;;;;22.18;81.28;101065.25;6027431;28;20486;-65
2023/09/28 08:44:06;;;;;;;7.22;3.40;;;;;;;22.31;78.88;101081.41;6026574;28;20030;-64
2023/09/28 08:47:11;;;;;;;5.03;3.00;;;;;;;22.25;79.92;101081.47;6026522;28;20026;-64
2023/09/28 08:50:08;;;;;;;5.10;3.20;;;;;;;22.46;77.73;101087.41;6026993;28;20032;-65
2023/09/28 08:53:07;;;;;;;5.90;3.22;;;;;;;22.43;76.52;101055.41;6042014;28;20073;-64
2023/09/28 08:56:04;;;;;;;7.47;3.60;;;;;;;22.34;77.88;101088.31;6033810;28;20069;-65
2023/09/28 08:59:00;;;;;;;5.38;3.05;;;;;;;22.53;76.51;101080.09;6046318;28;20478;-64
2023/09/28 09:01:55;;;;;;;6.38;3.13;;;;;;;22.70;74.92;101090.44;6026924;28;20041;-64
2023/09/28 09:04:52;;;;;;;7.20;3.33;;;;;;;22.80;75.08;101088.13;6026534;28;20022;-64
2023/09/28 09:07:48;;;;;;;8.68;3.60;;;;;;;22.89;74.76;101086.78;6025698;28;20429;-65
2023/09/28 09:10:46;;;;;;;8.82;3.83;;;;;;;22.88;74.60;101085.97;6008997;28;20037;-64
2023/09/28 09:13:53;;;;;;;6.45;3.67;;;;;;;22.85;74.32;101085.59;6026396;28;20034;-65
2023/09/28 09:16:48;;;;;;;6.80;3.30;;;;;;;23.29;74.94;101101.72;6025968;28;20026;-65
2023/09/28 09:19:44;;;;;;;5.30;3.50;;;;;;;23.59;69.13;101105.47;6026343;28;20045;-66
2023/09/28 09:22:39;;;;;;;7.97;3.33;;;;;;;23.39;70.76;101088.56;6025978;28;20137;-64
2023/09/28 09:25:41;;;;;;;4.47;3.13;;;;;;;23.29;71.03;101099.00;6025910;28;20124;-66
2023/09/28 09:28:40;;;;;;;8.38;3.25;;;;;;;23.38;71.20;101092.31;6025845;28;20033;-65
2023/09/28 09:31:43;;;;;;;6.65;2.95;;;;;;;23.57;69.26;101096.72;6026167;28;20382;-66
2023/09/28 09:34:39;;;;;;;5.82;3.35;;;;;;;23.38;70.18;101102.31;6021736;28;20208;-65
2023/09/28 09:37:40;;;;;;;7.05;3.95;;;;;;;23.26;71.49;101098.63;6025209;28;20386;-65
2023/09/28 09:40:35;;;;;;;5.93;3.45;;;;;;;23.31;71.74;101110.47;6025149;28;20156;-66
2023/09/28 09:43:34;;;;;;;6.47;3.70;;;;;;;23.40;71.26;101095.63;6024714;28;20042;-65
2023/09/28 09:46:33;;;;;;;8.18;3.50;;;;;;;23.61;70.97;101103.38;6024899;28;20045;-66
2023/09/28 09:49:29;;;;;;;9.05;3.20;;;;;;;23.72;69.94;101101.00;6026102;28;20031;-66
2023/09/28 09:52:26;;;;;;;6.80;2.95;;;;;;;24.00;70.89;101096.72;6025911;28;20038;-65
2023/09/28 09:55:21;;;;;;;6.47;2.60;;;;;;;23.95;67.10;101093.03;6031937;28;20664;-65
2023/09/28 09:58:17;;;;;;;5.90;2.90;;;;;;;24.04;66.91;101091.69;6025535;28;20030;-66
2023/09/28 10:01:13;;;;;;;6.03;3.05;;;;;;;24.11;67.96;101089.78;6016582;28;20049;-64
2023/09/28 10:04:12;;;;;;;8.43;2.90;;;;;;;24.03;67.51;101073.78;6025762;28;20065;-66
2023/09/28 10:07:12;;;;;;;6.70;3.08;;;;;;;24.21;67.16;101092.81;6028368;28;20537;-65
2023/09/28 10:10:08;;;;;;;6.53;2.83;;;;;;;24.32;66.49;101081.19;6025680;28;20126;-66
2023/09/28 10:13:03;;;;;;;7.00;3.25;;;;;;;24.35;67.10;101094.28;6033346;28;20026;-65
2023/09/28 10:16:01;;;;;;;6.95;3.20;;;;;;;24.33;67.15;101107.25;6025208;28;20038;-65
2023/09/28 10:18:57;;;;;;;6.43;3.25;;;;;;;24.55;65.78;101122.00;6024036;28;20058;-64
2023/09/28 10:21:55;;;;;;;8.27;3.72;;;;;;;24.33;65.64;101096.41;6043299;28;20046;-65
2023/09/28 10:24:51;;;;;;;9.38;3.30;;;;;;;24.59;64.87;101101.50;6025529;28;20466;-65
2023/09/28 10:27:49;;;;;;;6.63;3.37;;;;;;;24.61;64.59;101115.66;6024611;28;20058;-66
2023/09/28 10:30:45;;;;;;;6.53;3.08;;;;;;;24.48;65.59;101094.16;6025193;28;20037;-65
2023/09/28 10:34:02;;;;;;;6.25;3.03;;;;;;;24.70;65.11;101098.03;6025486;28;20053;-66
2023/09/28 10:37:18;;;;;;;7.45;3.03;;;;;;;24.80;65.50;101124.63;6024416;28;20026;-65
2023/09/28 10:40:16;;;;;;;6.65;2.70;;;;;;;24.81;64.83;101110.81;6025102;28;20035;-65
2023/09/28 10:43:13;;;;;;;8.30;3.15;;;;;;;24.95;63.91;101118.81;6024909;28;20072;-65
2023/09/28 10:46:08;;;;;;;5.40;2.70;;;;;;;25.08;63.03;101113.19;6024621;28;20097;-65
2023/09/28 10:49:04;;;;;;;5.72;3.22;;;;;;;25.20;63.24;101114.03;6024598;28;20042;-65
2023/09/28 10:51:59;;;;;;;5.07;2.87;;;;;;;25.36;63.40;101113.34;6025122;28;20054;-66
2023/09/28 10:54:55;;;;;;;6.38;2.83;;;;;;;25.36;62.95;101116.06;6024600;28;20023;-66
2023/09/28 10:57:51;;;;;;;7.82;3.15;;;;;;;25.26;61.46;101105.78;6024604;28;20161;-65
2023/09/28 11:00:46;;;;;;;6.40;2.92;;;;;;;25.34;60.67;101119.03;6022364;28;20030;-65
2023/09/28 11:03:42;;;;;;;9.20;3.37;;;;;;;25.58;60.51;101105.50;6020367;28;20073;-66
2023/09/28 11:06:38;;;;;;;8.50;3.50;;;;;;;25.90;59.47;101094.06;6025944;28;20054;-65
2023/09/28 11:09:37;;;;;;;5.75;2.88;;;;;;;25.99;58.77;101098.09;6029296;28;20045;-65
2023/09/28 11:12:33;;;;;;;4.88;2.83;;;;;;;26.12;58.95;101097.00;6029272;28;20058;-66
2023/09/28 11:15:29;;;;;;;6.38;3.15;;;;;;;26.01;57.59;101101.38;6028986;28;20031;-65
2023/09/28 11:18:26;;;;;;;6.72;3.25;;;;;;;26.12;57.11;101080.69;6028286;28;20104;-65
2023/09/28 11:21:22;;;;;;;9.90;3.33;;;;;;;26.24;58.04;101077.97;6029160;28;20065;-66
2023/09/28 11:24:17;;;;;;;8.50;3.55;;;;;;;26.00;57.87;101083.44;6029027;28;20026;-65
2023/09/28 11:27:12;;;;;;;7.55;3.15;;;;;;;26.10;57.85;101081.97;6028555;28;20026;-65
2023/09/28 11:30:17;;;;;;;8.48;3.65;;;;;;;26.22;57.42;101075.50;6028849;28;20356;-66
2023/09/28 11:33:12;;;;;;;10.10;3.70;;;;;;;25.90;57.73;101071.50;6028321;28;20095;-65
2023/09/28 11:36:11;;;;;;;9.77;3.50;;;;;;;25.93;58.35;101082.72;6027076;28;20375;-65
2023/09/28 11:39:06;;;;;;;8.38;3.53;;;;;;;25.69;59.21;101063.94;6028013;28;20030;-66
2023/09/28 11:42:03;;;;;;;6.00;3.30;;;;;;;25.65;58.95;101071.75;6027541;28;20390;-65
2023/09/28 11:44:58;;;;;;;5.95;3.05;;;;;;;25.83;59.12;101063.47;6028007;28;20278;-66
2023/09/28 11:47:54;;;;;;;6.93;3.15;;;;;;;25.83;58.62;101077.06;6027836;28;20037;-65
2023/09/28 11:50:50;;;;;;;6.82;3.00;;;;;;;25.77;58.78;101071.72;6028629;28;20105;-65
2023/09/28 11:53:45;;;;;;;5.70;3.10;;;;;;;26.06;57.51;101081.66;6027826;28;20112;-65
2023/09/28 11:56:40;;;;;;;6.10;3.17;;;;;;;26.17;57.14;101086.28;6028304;28;20038;-66
2023/09/28 11:59:37;;;;;;;6.47;3.65;;;;;;;26.10;57.36;101076.53;6028227;28;20477;-65
2023/09/28 12:02:32;;;;;;;5.68;3.40;;;;;;;26.17;57.34;101088.16;6027933;28;20109;-65
2023/09/28 12:05:28;;;;;;;8.68;3.33;;;;;;;26.10;58.38;101080.09;6021659;28;20027;-67
2023/09/28 12:08:24;;;;;;;6.78;3.22;;;;;;;26.03;57.55;101077.53;6025501;28;20108;-65
2023/09/28 12:11:19;;;;;;;7.30;3.47;;;;;;;25.73;58.39;101082.28;6025609;28;20038;-66
2023/09/28 12:14:15;;;;;;;6.70;3.67;;;;;;;25.61;59.89;101081.44;6027297;28;20030;-66
2023/09/28 12:17:10;;;;;;;6.63;3.45;;;;;;;25.50;59.86;101079.53;6019865;28;20045;-65
2023/09/28 12:20:08;;;;;;;5.87;2.90;;;;;;;25.69;58.68;101078.34;6020794;28;20031;-65
2023/09/28 12:23:05;;;;;;;7.47;3.55;;;;;;;25.85;58.29;101074.94;6017773;28;20517;-65
2023/09/28 12:26:02;;;;;;;7.35;3.60;;;;;;;25.90;58.20;101077.75;6014389;28;20053;-67
2023/09/28 12:28:58;;;;;;;6.47;3.25;;;;;;;25.89;58.84;101076.13;6013522;28;20030;-65
2023/09/28 12:31:54;;;;;;;6.93;3.13;;;;;;;25.87;58.68;101080.94;6022735;28;20114;-65
2023/09/28 12:34:49;;;;;;;5.60;3.23;;;;;;;25.81;57.31;101065.59;6012155;28;20034;-66
2023/09/28 12:37:45;;;;;;;5.00;3.10;;;;;;;26.03;56.66;101072.09;6012557;28;20175;-65
2023/09/28 12:40:42;;;;;;;6.30;2.83;;;;;;;26.45;56.82;101072.72;6017588;28;20030;-66
2023/09/28 12:43:38;;;;;;;5.80;2.90;;;;;;;26.43;55.94;101076.75;6012986;28;20045;-67
2023/09/28 12:46:33;;;;;;;5.20;3.00;;;;;;;26.53;55.40;101075.06;6012103;28;20034;-65
2023/09/28 12:49:29;;;;;;;5.60;2.75;;;;;;;26.31;54.81;101068.59;6013826;28;20077;-66
2023/09/28 12:52:24;;;;;;;7.55;3.00;;;;;;;26.28;54.02;101071.00;6017623;28;20035;-65
2023/09/28 12:55:19;;;;;;;7.43;2.90;;;;;;;26.52;54.62;101069.88;6020098;28;20042;-65
2023/09/28 12:58:15;;;;;;;6.70;3.03;;;;;;;26.61;53.89;101052.06;6014758;28;20040;-65
2023/09/28 13:01:10;;;;;;;6.23;2.70;;;;;;;26.38;54.11;101065.75;6018022;28;20077;-66
2023/09/28 13:04:05;;;;;;;8.90;2.97;;;;;;;26.34;53.75;101061.84;6018487;28;20026;-66
2023/09/28 13:07:04;;;;;;;7.83;3.20;;;;;;;26.29;54.08;101045.44;6008424;28;20269;-65
2023/09/28 13:09:59;;;;;;;9.82;3.38;;;;;;;26.23;53.67;101062.72;6015319;28;20428;-66
2023/09/28 13:12:55;;;;;;;7.33;2.80;;;;;;;26.18;54.40;101057.16;6023485;28;20034;-66
2023/09/28 13:15:50;;;;;;;7.07;3.47;;;;;;;26.28;53.78;101057.41;6014045;28;20071;-66
2023/09/28 13:18:46;;;;;;;5.80;2.90;;;;;;;26.14;53.98;101069.63;6012453;28;20038;-66
2023/09/28 13:21:41;;;;;;;7.45;3.08;;;;;;;26.45;54.55;101077.31;6022859;28;20104;-66
2023/09/28 13:24:37;;;;;;;6.67;3.00;;;;;;;26.41;54.25;101070.72;6013944;28;20054;-67
2023/09/28 13:27:34;;;;;;;5.80;2.97;;;;;;;26.58;55.77;101068.88;6017949;28;20028;-66
2023/09/28 13:30:29;;;;;;;5.45;3.28;;;;;;;26.33;54.79;101039.28;6020680;28;20117;-65